Lake City, TN

6:44 AM EDT on March 30, 2015 (GMT -0400)
Oak Ridge | | Change Station
CLOSE
Current Station
Airport
Location: Oak Ridge,
Elevation: 915 ft
Nearby Weather Stations

Elev 915 ft 36.02 °N, 84.23 °W | Updated 51 minutes ago

Overcast
Overcast
48 °F
Feels Like 48 °F
N
6
Wind Variable Wind from SSW

Today
High -- | Low -- °F
--% Chance of Precip.
Yesterday
High -- | Low -- °F
Precip. -- in
7:26 AM 7:56 PM
Waxing Gibbous, 79% visible
Pressure 30.08 in
Visibility 10.0 miles
Clouds Mostly Cloudy 3700 ft
Overcast 5000 ft
Dew Point 43 °F
Humidity 83%
Rainfall 0.05 in
Snow Depth Not available.
UV 0 out of 12
Pollen 8.40 out of 12
Air Quality Not available.
Flu Activity Not available.
METAR KOQT 300953Z AUTO 21005KT 10SM BKN037 OVC050 09/06 A3007 RMK AO2 RAE11 SLP184 P0000 T00890061

More Conditions Fewer Conditions

Pressure 30.08 in
Visibility 10.0 miles
Clouds Mostly Cloudy 3700 ft
Overcast 5000 ft
Dew Point 43 °F
Humidity 83%
Rainfall 0.05 in
Snow Depth Not available.
UV 0 out of 12
Pollen 8.40 out of 12
Air Quality Not available.
Flu Activity Not available.
METAR KOQT 300953Z AUTO 21005KT 10SM BKN037 OVC050 09/06 A3007 RMK AO2 RAE11 SLP184 P0000 T00890061

More Conditions Fewer Conditions

10-Day Weather Forecast

Almanac

Astronomy

Mar. 30, 2015 Rise Set
Actual Time
Civil Twilight
Nautical Twilight
Astronomical Twilight
Moon
Length of Visible Light
Length of Day
Tomorrow will be .
, % of the Moon is Illuminated

Today's Extremes

State Highs State Lows

Community

WunderPhotos

Upload Photos

1,809,455 photos uploaded!

WunderBlogs® & News

Nearby

Air Quality

  Air Quality AQ Index Pollutant
Not available.

Snow Depth

Station Depth Elevation

Earthquake Activity

City Distance Mag. Time & Date
Minimum magnitude displayed is 2.5.

Coastal Water Temperatures

Place Temperature

Stations

Nearby Weather Stations

Station Location Temp. Windchill Dew Point Humidity Wind Precip. Elev Updated Type